sensor_id;sensor_type;location;lat;lon;timestamp;P1;durP1;ratioP1;P2;durP2;ratioP2
73264;SDS011;61493;51.008;14.088;2023-08-17T00:00:37;6.88;;;4.70;;
73264;SDS011;61493;51.008;14.088;2023-08-17T00:03:02;7.30;;;4.67;;
73264;SDS011;61493;51.008;14.088;2023-08-17T00:05:28;8.02;;;5.43;;
73264;SDS011;61493;51.008;14.088;2023-08-17T00:07:53;7.28;;;4.72;;
73264;SDS011;61493;51.008;14.088;2023-08-17T00:10:18;7.55;;;5.93;;
73264;SDS011;61493;51.008;14.088;2023-08-17T00:12:44;7.70;;;5.55;;
73264;SDS011;61493;51.008;14.088;2023-08-17T00:15:09;7.15;;;5.07;;
73264;SDS011;61493;51.008;14.088;2023-08-17T00:17:34;7.85;;;5.18;;
73264;SDS011;61493;51.008;14.088;2023-08-17T00:19:59;6.72;;;4.97;;
73264;SDS011;61493;51.008;14.088;2023-08-17T00:22:25;6.50;;;4.85;;
73264;SDS011;61493;51.008;14.088;2023-08-17T00:24:50;7.57;;;5.60;;
73264;SDS011;61493;51.008;14.088;2023-08-17T00:27:15;7.60;;;4.63;;
73264;SDS011;61493;51.008;14.088;2023-08-17T00:29:40;6.83;;;4.63;;
73264;SDS011;61493;51.008;14.088;2023-08-17T00:32:05;6.55;;;4.85;;
73264;SDS011;61493;51.008;14.088;2023-08-17T00:34:31;6.40;;;5.03;;
73264;SDS011;61493;51.008;14.088;2023-08-17T00:36:56;7.13;;;5.33;;
73264;SDS011;61493;51.008;14.088;2023-08-17T00:39:21;7.90;;;5.40;;
73264;SDS011;61493;51.008;14.088;2023-08-17T00:41:46;6.53;;;4.57;;
73264;SDS011;61493;51.008;14.088;2023-08-17T00:44:12;8.90;;;5.63;;
73264;SDS011;61493;51.008;14.088;2023-08-17T00:46:37;8.68;;;5.65;;
73264;SDS011;61493;51.008;14.088;2023-08-17T00:49:03;8.13;;;5.57;;
73264;SDS011;61493;51.008;14.088;2023-08-17T00:51:28;8.85;;;5.60;;
73264;SDS011;61493;51.008;14.088;2023-08-17T00:53:54;7.78;;;5.57;;
73264;SDS011;61493;51.008;14.088;2023-08-17T00:56:21;7.00;;;5.05;;
73264;SDS011;61493;51.008;14.088;2023-08-17T00:58:46;7.50;;;5.25;;
73264;SDS011;61493;51.008;14.088;2023-08-17T01:01:11;7.38;;;4.97;;
73264;SDS011;61493;51.008;14.088;2023-08-17T01:03:37;8.13;;;5.45;;
73264;SDS011;61493;51.008;14.088;2023-08-17T01:06:05;9.05;;;5.10;;
73264;SDS011;61493;51.008;14.088;2023-08-17T01:08:31;6.15;;;4.53;;
73264;SDS011;61493;51.008;14.088;2023-08-17T01:11:02;7.50;;;5.18;;
73264;SDS011;61493;51.008;14.088;2023-08-17T01:13:47;8.18;;;5.50;;
73264;SDS011;61493;51.008;14.088;2023-08-17T01:18:39;7.65;;;5.00;;
73264;SDS011;61493;51.008;14.088;2023-08-17T01:21:05;8.15;;;5.30;;
73264;SDS011;61493;51.008;14.088;2023-08-17T01:23:31;8.45;;;5.95;;
73264;SDS011;61493;51.008;14.088;2023-08-17T01:25:57;6.28;;;4.97;;
73264;SDS011;61493;51.008;14.088;2023-08-17T01:28:22;9.32;;;5.57;;
73264;SDS011;61493;51.008;14.088;2023-08-17T01:33:39;9.10;;;5.10;;
73264;SDS011;61493;51.008;14.088;2023-08-17T01:38:34;7.80;;;5.25;;
73264;SDS011;61493;51.008;14.088;2023-08-17T01:40:59;8.40;;;5.30;;
73264;SDS011;61493;51.008;14.088;2023-08-17T01:43:26;7.80;;;5.75;;
73264;SDS011;61493;51.008;14.088;2023-08-17T01:45:51;7.18;;;4.97;;
73264;SDS011;61493;51.008;14.088;2023-08-17T01:48:17;9.52;;;5.25;;
73264;SDS011;61493;51.008;14.088;2023-08-17T01:50:42;6.80;;;4.93;;
73264;SDS011;61493;51.008;14.088;2023-08-17T01:53:07;6.70;;;4.80;;
73264;SDS011;61493;51.008;14.088;2023-08-17T01:55:34;7.35;;;5.43;;
73264;SDS011;61493;51.008;14.088;2023-08-17T01:58:00;7.30;;;4.97;;
73264;SDS011;61493;51.008;14.088;2023-08-17T02:00:25;7.27;;;5.20;;
73264;SDS011;61493;51.008;14.088;2023-08-17T02:02:50;6.63;;;4.80;;
73264;SDS011;61493;51.008;14.088;2023-08-17T02:05:15;9.03;;;5.20;;
73264;SDS011;61493;51.008;14.088;2023-08-17T02:07:41;7.20;;;4.93;;
73264;SDS011;61493;51.008;14.088;2023-08-17T02:10:06;8.73;;;5.20;;
73264;SDS011;61493;51.008;14.088;2023-08-17T02:12:31;8.77;;;4.97;;
73264;SDS011;61493;51.008;14.088;2023-08-17T02:14:56;6.83;;;4.83;;
73264;SDS011;61493;51.008;14.088;2023-08-17T02:17:22;7.83;;;5.20;;
73264;SDS011;61493;51.008;14.088;2023-08-17T02:19:47;7.45;;;5.68;;
73264;SDS011;61493;51.008;14.088;2023-08-17T02:22:13;9.35;;;5.40;;
73264;SDS011;61493;51.008;14.088;2023-08-17T02:24:38;6.70;;;4.70;;
73264;SDS011;61493;51.008;14.088;2023-08-17T02:27:03;6.70;;;4.73;;
73264;SDS011;61493;51.008;14.088;2023-08-17T02:29:28;5.95;;;4.40;;
73264;SDS011;61493;51.008;14.088;2023-08-17T02:31:53;7.23;;;5.00;;
73264;SDS011;61493;51.008;14.088;2023-08-17T02:34:19;6.37;;;4.73;;
73264;SDS011;61493;51.008;14.088;2023-08-17T02:36:44;7.35;;;5.20;;
73264;SDS011;61493;51.008;14.088;2023-08-17T02:39:09;6.63;;;5.00;;
73264;SDS011;61493;51.008;14.088;2023-08-17T02:41:34;6.78;;;4.65;;
73264;SDS011;61493;51.008;14.088;2023-08-17T02:44:00;6.53;;;4.40;;
73264;SDS011;61493;51.008;14.088;2023-08-17T02:46:25;9.93;;;5.15;;
73264;SDS011;61493;51.008;14.088;2023-08-17T02:48:50;6.78;;;4.95;;
73264;SDS011;61493;51.008;14.088;2023-08-17T02:51:16;7.80;;;4.75;;
73264;SDS011;61493;51.008;14.088;2023-08-17T02:53:41;7.45;;;4.32;;
73264;SDS011;61493;51.008;14.088;2023-08-17T02:56:06;6.37;;;4.50;;
73264;SDS011;61493;51.008;14.088;2023-08-17T02:58:31;6.75;;;4.72;;
73264;SDS011;61493;51.008;14.088;2023-08-17T03:00:56;8.87;;;5.53;;
73264;SDS011;61493;51.008;14.088;2023-08-17T03:03:22;8.33;;;5.10;;
73264;SDS011;61493;51.008;14.088;2023-08-17T03:05:47;7.93;;;5.18;;
73264;SDS011;61493;51.008;14.088;2023-08-17T03:08:12;6.57;;;4.95;;
73264;SDS011;61493;51.008;14.088;2023-08-17T03:10:37;7.05;;;5.10;;
73264;SDS011;61493;51.008;14.088;2023-08-17T03:13:03;6.35;;;4.55;;
73264;SDS011;61493;51.008;14.088;2023-08-17T03:15:28;8.20;;;5.75;;
73264;SDS011;61493;51.008;14.088;2023-08-17T03:17:53;7.77;;;5.20;;
73264;SDS011;61493;51.008;14.088;2023-08-17T03:20:18;7.85;;;5.32;;
73264;SDS011;61493;51.008;14.088;2023-08-17T03:22:44;7.13;;;5.10;;
73264;SDS011;61493;51.008;14.088;2023-08-17T03:25:09;6.73;;;4.83;;
73264;SDS011;61493;51.008;14.088;2023-08-17T03:27:34;7.13;;;4.75;;
73264;SDS011;61493;51.008;14.088;2023-08-17T03:29:59;6.67;;;5.03;;
73264;SDS011;61493;51.008;14.088;2023-08-17T03:32:24;8.98;;;5.28;;
73264;SDS011;61493;51.008;14.088;2023-08-17T03:34:50;10.37;;;5.13;;
73264;SDS011;61493;51.008;14.088;2023-08-17T03:37:15;5.70;;;4.37;;
73264;SDS011;61493;51.008;14.088;2023-08-17T03:39:40;7.33;;;5.30;;
73264;SDS011;61493;51.008;14.088;2023-08-17T03:42:05;7.13;;;5.32;;
73264;SDS011;61493;51.008;14.088;2023-08-17T03:44:30;9.27;;;5.93;;
73264;SDS011;61493;51.008;14.088;2023-08-17T03:46:55;7.30;;;4.80;;
73264;SDS011;61493;51.008;14.088;2023-08-17T03:49:21;7.22;;;5.25;;
73264;SDS011;61493;51.008;14.088;2023-08-17T03:51:46;6.35;;;4.35;;
73264;SDS011;61493;51.008;14.088;2023-08-17T03:54:12;8.10;;;5.30;;
73264;SDS011;61493;51.008;14.088;2023-08-17T03:56:37;7.20;;;5.13;;
73264;SDS011;61493;51.008;14.088;2023-08-17T03:59:02;5.97;;;4.37;;
73264;SDS011;61493;51.008;14.088;2023-08-17T04:01:28;5.90;;;4.53;;
73264;SDS011;61493;51.008;14.088;2023-08-17T04:03:54;7.25;;;4.90;;
73264;SDS011;61493;51.008;14.088;2023-08-17T04:06:19;7.00;;;4.68;;
73264;SDS011;61493;51.008;14.088;2023-08-17T04:08:45;7.37;;;4.77;;
73264;SDS011;61493;51.008;14.088;2023-08-17T04:11:11;8.77;;;5.72;;
73264;SDS011;61493;51.008;14.088;2023-08-17T04:13:36;7.88;;;5.55;;
73264;SDS011;61493;51.008;14.088;2023-08-17T04:16:01;8.90;;;5.20;;
73264;SDS011;61493;51.008;14.088;2023-08-17T04:18:26;7.67;;;5.13;;
73264;SDS011;61493;51.008;14.088;2023-08-17T04:20:51;9.02;;;5.35;;
73264;SDS011;61493;51.008;14.088;2023-08-17T04:23:17;8.45;;;5.60;;
73264;SDS011;61493;51.008;14.088;2023-08-17T04:25:43;8.07;;;5.80;;
73264;SDS011;61493;51.008;14.088;2023-08-17T04:28:08;7.97;;;5.50;;
73264;SDS011;61493;51.008;14.088;2023-08-17T04:30:33;8.83;;;6.03;;
73264;SDS011;61493;51.008;14.088;2023-08-17T04:32:59;11.75;;;6.18;;
73264;SDS011;61493;51.008;14.088;2023-08-17T04:35:24;8.40;;;5.50;;
73264;SDS011;61493;51.008;14.088;2023-08-17T04:37:49;9.13;;;5.72;;
73264;SDS011;61493;51.008;14.088;2023-08-17T04:40:14;7.50;;;4.97;;
73264;SDS011;61493;51.008;14.088;2023-08-17T04:42:39;7.85;;;5.35;;
73264;SDS011;61493;51.008;14.088;2023-08-17T04:45:05;7.22;;;5.18;;
73264;SDS011;61493;51.008;14.088;2023-08-17T04:47:30;8.15;;;5.35;;
73264;SDS011;61493;51.008;14.088;2023-08-17T04:49:55;8.57;;;5.20;;
73264;SDS011;61493;51.008;14.088;2023-08-17T04:52:21;8.10;;;4.87;;
73264;SDS011;61493;51.008;14.088;2023-08-17T04:54:46;7.82;;;4.88;;
73264;SDS011;61493;51.008;14.088;2023-08-17T04:57:11;7.97;;;5.10;;
73264;SDS011;61493;51.008;14.088;2023-08-17T04:59:36;6.70;;;5.37;;
73264;SDS011;61493;51.008;14.088;2023-08-17T05:02:04;7.40;;;5.57;;
73264;SDS011;61493;51.008;14.088;2023-08-17T05:04:29;6.65;;;5.13;;
73264;SDS011;61493;51.008;14.088;2023-08-17T05:06:55;8.65;;;5.32;;
73264;SDS011;61493;51.008;14.088;2023-08-17T05:09:26;7.50;;;4.90;;
73264;SDS011;61493;51.008;14.088;2023-08-17T05:11:55;8.18;;;4.75;;
73264;SDS011;61493;51.008;14.088;2023-08-17T05:14:20;8.27;;;5.33;;
73264;SDS011;61493;51.008;14.088;2023-08-17T05:16:45;8.20;;;5.40;;
73264;SDS011;61493;51.008;14.088;2023-08-17T05:19:11;6.50;;;4.73;;
73264;SDS011;61493;51.008;14.088;2023-08-17T05:21:36;5.90;;;4.27;;
73264;SDS011;61493;51.008;14.088;2023-08-17T05:24:01;6.53;;;4.50;;
73264;SDS011;61493;51.008;14.088;2023-08-17T05:26:26;7.65;;;4.97;;
73264;SDS011;61493;51.008;14.088;2023-08-17T05:28:52;7.90;;;5.15;;
73264;SDS011;61493;51.008;14.088;2023-08-17T05:31:17;6.30;;;4.97;;
73264;SDS011;61493;51.008;14.088;2023-08-17T05:33:42;7.90;;;4.27;;
73264;SDS011;61493;51.008;14.088;2023-08-17T05:36:07;9.27;;;4.50;;
73264;SDS011;61493;51.008;14.088;2023-08-17T05:38:33;6.63;;;4.63;;
73264;SDS011;61493;51.008;14.088;2023-08-17T05:40:58;6.80;;;4.25;;
73264;SDS011;61493;51.008;14.088;2023-08-17T05:43:24;7.05;;;4.72;;
73264;SDS011;61493;51.008;14.088;2023-08-17T05:45:49;5.60;;;4.38;;
73264;SDS011;61493;51.008;14.088;2023-08-17T05:48:14;7.63;;;4.45;;
73264;SDS011;61493;51.008;14.088;2023-08-17T05:50:43;7.47;;;5.03;;
73264;SDS011;61493;51.008;14.088;2023-08-17T05:53:08;7.28;;;4.72;;
73264;SDS011;61493;51.008;14.088;2023-08-17T05:55:33;7.27;;;5.63;;
73264;SDS011;61493;51.008;14.088;2023-08-17T05:57:58;8.18;;;4.72;;
73264;SDS011;61493;51.008;14.088;2023-08-17T06:00:24;6.63;;;4.47;;
73264;SDS011;61493;51.008;14.088;2023-08-17T06:02:49;8.40;;;5.40;;
73264;SDS011;61493;51.008;14.088;2023-08-17T06:05:16;11.15;;;5.38;;
73264;SDS011;61493;51.008;14.088;2023-08-17T06:07:41;7.63;;;5.00;;
73264;SDS011;61493;51.008;14.088;2023-08-17T06:10:07;7.60;;;4.85;;
73264;SDS011;61493;51.008;14.088;2023-08-17T06:12:32;7.55;;;5.13;;
73264;SDS011;61493;51.008;14.088;2023-08-17T06:14:57;5.75;;;4.53;;
73264;SDS011;61493;51.008;14.088;2023-08-17T06:17:22;7.53;;;5.60;;
73264;SDS011;61493;51.008;14.088;2023-08-17T06:19:48;7.93;;;5.50;;
73264;SDS011;61493;51.008;14.088;2023-08-17T06:22:13;6.60;;;5.07;;
73264;SDS011;61493;51.008;14.088;2023-08-17T06:24:38;7.07;;;4.47;;
73264;SDS011;61493;51.008;14.088;2023-08-17T06:27:03;6.77;;;5.30;;
73264;SDS011;61493;51.008;14.088;2023-08-17T06:29:28;6.60;;;4.47;;
73264;SDS011;61493;51.008;14.088;2023-08-17T06:31:53;6.67;;;4.40;;
73264;SDS011;61493;51.008;14.088;2023-08-17T06:34:20;7.07;;;5.05;;
73264;SDS011;61493;51.008;14.088;2023-08-17T06:36:53;12.67;;;6.27;;
73264;SDS011;61493;51.008;14.088;2023-08-17T06:39:21;6.88;;;4.95;;
73264;SDS011;61493;51.008;14.088;2023-08-17T06:41:46;6.03;;;4.33;;
73264;SDS011;61493;51.008;14.088;2023-08-17T06:44:11;7.53;;;5.30;;
73264;SDS011;61493;51.008;14.088;2023-08-17T06:46:36;8.70;;;5.40;;
73264;SDS011;61493;51.008;14.088;2023-08-17T06:49:01;7.80;;;5.30;;
73264;SDS011;61493;51.008;14.088;2023-08-17T06:51:27;9.73;;;5.25;;
73264;SDS011;61493;51.008;14.088;2023-08-17T06:53:53;8.03;;;5.73;;
73264;SDS011;61493;51.008;14.088;2023-08-17T06:56:18;7.40;;;5.00;;
73264;SDS011;61493;51.008;14.088;2023-08-17T06:58:43;7.10;;;6.00;;
73264;SDS011;61493;51.008;14.088;2023-08-17T07:01:08;8.33;;;6.07;;
73264;SDS011;61493;51.008;14.088;2023-08-17T07:03:33;8.73;;;5.10;;
73264;SDS011;61493;51.008;14.088;2023-08-17T07:05:58;9.47;;;5.90;;
73264;SDS011;61493;51.008;14.088;2023-08-17T07:08:23;9.30;;;6.20;;
73264;SDS011;61493;51.008;14.088;2023-08-17T07:10:49;8.67;;;5.27;;
73264;SDS011;61493;51.008;14.088;2023-08-17T07:13:14;7.93;;;5.93;;
73264;SDS011;61493;51.008;14.088;2023-08-17T07:15:39;8.17;;;6.17;;
73264;SDS011;61493;51.008;14.088;2023-08-17T07:18:04;8.93;;;6.57;;
73264;SDS011;61493;51.008;14.088;2023-08-17T07:20:29;7.83;;;5.27;;
73264;SDS011;61493;51.008;14.088;2023-08-17T07:22:55;9.15;;;5.40;;
73264;SDS011;61493;51.008;14.088;2023-08-17T07:25:20;12.17;;;6.20;;
73264;SDS011;61493;51.008;14.088;2023-08-17T07:27:45;8.13;;;4.80;;
73264;SDS011;61493;51.008;14.088;2023-08-17T07:30:10;7.67;;;5.70;;
73264;SDS011;61493;51.008;14.088;2023-08-17T07:32:36;7.57;;;5.72;;
73264;SDS011;61493;51.008;14.088;2023-08-17T07:35:01;6.73;;;5.40;;
73264;SDS011;61493;51.008;14.088;2023-08-17T07:37:26;6.40;;;5.00;;
73264;SDS011;61493;51.008;14.088;2023-08-17T07:39:58;8.07;;;5.28;;
73264;SDS011;61493;51.008;14.088;2023-08-17T07:42:23;14.82;;;6.05;;
73264;SDS011;61493;51.008;14.088;2023-08-17T07:44:48;7.43;;;4.70;;
73264;SDS011;61493;51.008;14.088;2023-08-17T07:47:13;8.10;;;5.37;;
73264;SDS011;61493;51.008;14.088;2023-08-17T07:49:39;8.33;;;5.00;;
73264;SDS011;61493;51.008;14.088;2023-08-17T07:52:04;8.73;;;5.32;;
73264;SDS011;61493;51.008;14.088;2023-08-17T07:54:29;8.50;;;5.10;;
73264;SDS011;61493;51.008;14.088;2023-08-17T07:56:54;7.80;;;4.60;;
73264;SDS011;61493;51.008;14.088;2023-08-17T07:59:19;8.37;;;4.60;;
73264;SDS011;61493;51.008;14.088;2023-08-17T08:01:44;6.80;;;4.73;;
73264;SDS011;61493;51.008;14.088;2023-08-17T08:04:10;5.47;;;4.23;;
73264;SDS011;61493;51.008;14.088;2023-08-17T08:06:35;5.30;;;4.20;;
73264;SDS011;61493;51.008;14.088;2023-08-17T08:09:00;5.93;;;4.90;;
73264;SDS011;61493;51.008;14.088;2023-08-17T08:11:25;6.37;;;4.67;;
73264;SDS011;61493;51.008;14.088;2023-08-17T08:13:52;6.63;;;4.60;;
73264;SDS011;61493;51.008;14.088;2023-08-17T08:16:18;4.82;;;4.25;;
73264;SDS011;61493;51.008;14.088;2023-08-17T08:18:43;5.10;;;4.40;;
73264;SDS011;61493;51.008;14.088;2023-08-17T08:21:08;6.47;;;4.60;;
73264;SDS011;61493;51.008;14.088;2023-08-17T08:23:35;5.72;;;4.40;;
73264;SDS011;61493;51.008;14.088;2023-08-17T08:26:00;5.97;;;4.83;;
73264;SDS011;61493;51.008;14.088;2023-08-17T08:28:25;6.10;;;4.53;;
73264;SDS011;61493;51.008;14.088;2023-08-17T08:30:51;5.97;;;4.60;;
73264;SDS011;61493;51.008;14.088;2023-08-17T08:33:16;5.20;;;4.57;;
73264;SDS011;61493;51.008;14.088;2023-08-17T08:35:41;5.93;;;4.90;;
73264;SDS011;61493;51.008;14.088;2023-08-17T08:38:06;7.33;;;4.60;;
73264;SDS011;61493;51.008;14.088;2023-08-17T08:40:32;5.57;;;5.00;;
73264;SDS011;61493;51.008;14.088;2023-08-17T08:42:57;6.40;;;4.40;;
73264;SDS011;61493;51.008;14.088;2023-08-17T08:45:23;6.20;;;5.10;;
73264;SDS011;61493;51.008;14.088;2023-08-17T08:47:48;6.05;;;4.80;;
73264;SDS011;61493;51.008;14.088;2023-08-17T08:50:16;5.40;;;4.90;;
73264;SDS011;61493;51.008;14.088;2023-08-17T08:52:44;5.15;;;4.65;;
73264;SDS011;61493;51.008;14.088;2023-08-17T08:57:35;6.33;;;5.33;;
73264;SDS011;61493;51.008;14.088;2023-08-17T09:00:01;7.07;;;5.40;;
73264;SDS011;61493;51.008;14.088;2023-08-17T09:02:26;6.68;;;5.32;;
73264;SDS011;61493;51.008;14.088;2023-08-17T09:04:51;7.13;;;5.57;;
73264;SDS011;61493;51.008;14.088;2023-08-17T09:07:16;6.53;;;5.57;;
73264;SDS011;61493;51.008;14.088;2023-08-17T09:09:44;6.50;;;5.05;;
73264;SDS011;61493;51.008;14.088;2023-08-17T09:12:09;5.13;;;4.47;;
73264;SDS011;61493;51.008;14.088;2023-08-17T09:14:35;7.30;;;5.53;;
73264;SDS011;61493;51.008;14.088;2023-08-17T09:17:02;6.28;;;5.15;;
73264;SDS011;61493;51.008;14.088;2023-08-17T09:19:27;6.20;;;5.57;;
73264;SDS011;61493;51.008;14.088;2023-08-17T09:21:53;8.23;;;5.20;;
73264;SDS011;61493;51.008;14.088;2023-08-17T09:24:18;5.97;;;4.87;;
73264;SDS011;61493;51.008;14.088;2023-08-17T09:26:43;6.20;;;5.37;;
73264;SDS011;61493;51.008;14.088;2023-08-17T09:29:18;5.93;;;5.33;;
73264;SDS011;61493;51.008;14.088;2023-08-17T09:31:44;11.43;;;5.93;;
73264;SDS011;61493;51.008;14.088;2023-08-17T09:34:10;5.90;;;5.30;;
73264;SDS011;61493;51.008;14.088;2023-08-17T09:36:35;6.30;;;5.70;;
73264;SDS011;61493;51.008;14.088;2023-08-17T09:39:00;6.20;;;5.60;;
73264;SDS011;61493;51.008;14.088;2023-08-17T09:41:26;6.50;;;5.78;;
73264;SDS011;61493;51.008;14.088;2023-08-17T09:43:51;6.23;;;5.30;;
73264;SDS011;61493;51.008;14.088;2023-08-17T09:46:19;6.82;;;5.75;;
73264;SDS011;61493;51.008;14.088;2023-08-17T09:48:44;6.63;;;5.97;;
73264;SDS011;61493;51.008;14.088;2023-08-17T09:51:16;7.88;;;5.72;;
73264;SDS011;61493;51.008;14.088;2023-08-17T09:53:41;7.07;;;6.30;;
73264;SDS011;61493;51.008;14.088;2023-08-17T09:56:07;6.97;;;5.75;;
73264;SDS011;61493;51.008;14.088;2023-08-17T09:58:33;7.15;;;6.45;;
73264;SDS011;61493;51.008;14.088;2023-08-17T10:00:58;6.65;;;5.25;;
73264;SDS011;61493;51.008;14.088;2023-08-17T10:03:23;6.37;;;4.93;;
73264;SDS011;61493;51.008;14.088;2023-08-17T10:05:58;7.32;;;5.53;;
73264;SDS011;61493;51.008;14.088;2023-08-17T10:08:24;5.80;;;5.22;;
73264;SDS011;61493;51.008;14.088;2023-08-17T10:10:50;9.35;;;5.72;;
73264;SDS011;61493;51.008;14.088;2023-08-17T10:15:51;6.45;;;5.85;;
73264;SDS011;61493;51.008;14.088;2023-08-17T10:18:26;6.97;;;6.28;;
73264;SDS011;61493;51.008;14.088;2023-08-17T10:21:07;8.27;;;6.20;;
73264;SDS011;61493;51.008;14.088;2023-08-17T10:23:35;7.80;;;5.70;;
73264;SDS011;61493;51.008;14.088;2023-08-17T10:26:00;6.32;;;5.63;;
73264;SDS011;61493;51.008;14.088;2023-08-17T10:28:27;8.07;;;6.38;;
73264;SDS011;61493;51.008;14.088;2023-08-17T10:30:52;7.32;;;6.30;;
73264;SDS011;61493;51.008;14.088;2023-08-17T10:33:18;10.18;;;6.47;;
73264;SDS011;61493;51.008;14.088;2023-08-17T10:35:43;6.57;;;5.93;;
73264;SDS011;61493;51.008;14.088;2023-08-17T10:38:09;5.95;;;5.32;;
73264;SDS011;61493;51.008;14.088;2023-08-17T10:40:35;6.97;;;5.75;;
73264;SDS011;61493;51.008;14.088;2023-08-17T10:43:00;6.70;;;6.00;;
73264;SDS011;61493;51.008;14.088;2023-08-17T10:45:29;7.23;;;5.63;;
73264;SDS011;61493;51.008;14.088;2023-08-17T10:50:33;6.38;;;5.78;;
73264;SDS011;61493;51.008;14.088;2023-08-17T10:52:58;7.05;;;5.90;;
73264;SDS011;61493;51.008;14.088;2023-08-17T10:55:38;7.68;;;5.78;;
73264;SDS011;61493;51.008;14.088;2023-08-17T10:58:05;6.60;;;5.30;;
73264;SDS011;61493;51.008;14.088;2023-08-17T11:00:32;5.97;;;5.25;;
73264;SDS011;61493;51.008;14.088;2023-08-17T11:02:59;5.85;;;5.03;;
73264;SDS011;61493;51.008;14.088;2023-08-17T11:05:35;6.28;;;5.07;;
73264;SDS011;61493;51.008;14.088;2023-08-17T11:08:01;5.28;;;4.78;;
73264;SDS011;61493;51.008;14.088;2023-08-17T11:10:27;7.00;;;5.30;;
73264;SDS011;61493;51.008;14.088;2023-08-17T11:12:54;6.25;;;4.88;;
73264;SDS011;61493;51.008;14.088;2023-08-17T11:15:24;5.57;;;5.07;;
73264;SDS011;61493;51.008;14.088;2023-08-17T11:17:49;5.22;;;4.47;;
73264;SDS011;61493;51.008;14.088;2023-08-17T11:20:14;7.03;;;4.90;;
73264;SDS011;61493;51.008;14.088;2023-08-17T11:22:40;7.67;;;5.20;;
73264;SDS011;61493;51.008;14.088;2023-08-17T11:25:05;5.13;;;4.47;;
73264;SDS011;61493;51.008;14.088;2023-08-17T11:27:30;6.13;;;4.90;;
73264;SDS011;61493;51.008;14.088;2023-08-17T11:29:55;7.40;;;5.13;;
73264;SDS011;61493;51.008;14.088;2023-08-17T11:32:21;6.45;;;5.50;;
73264;SDS011;61493;51.008;14.088;2023-08-17T11:34:46;5.53;;;5.03;;
73264;SDS011;61493;51.008;14.088;2023-08-17T11:37:11;5.97;;;5.13;;
73264;SDS011;61493;51.008;14.088;2023-08-17T11:39:37;6.17;;;4.90;;
73264;SDS011;61493;51.008;14.088;2023-08-17T11:42:02;6.15;;;4.95;;
73264;SDS011;61493;51.008;14.088;2023-08-17T11:44:30;7.47;;;5.78;;
73264;SDS011;61493;51.008;14.088;2023-08-17T11:46:55;8.90;;;5.57;;
73264;SDS011;61493;51.008;14.088;2023-08-17T11:49:20;7.47;;;5.43;;
73264;SDS011;61493;51.008;14.088;2023-08-17T11:51:47;6.72;;;6.03;;
73264;SDS011;61493;51.008;14.088;2023-08-17T11:54:12;8.77;;;5.73;;
73264;SDS011;61493;51.008;14.088;2023-08-17T11:56:37;8.00;;;5.70;;
73264;SDS011;61493;51.008;14.088;2023-08-17T11:59:09;9.77;;;5.57;;
73264;SDS011;61493;51.008;14.088;2023-08-17T12:01:36;8.82;;;5.85;;
73264;SDS011;61493;51.008;14.088;2023-08-17T12:04:03;7.00;;;5.75;;
73264;SDS011;61493;51.008;14.088;2023-08-17T12:06:28;7.05;;;6.03;;
73264;SDS011;61493;51.008;14.088;2023-08-17T12:08:55;7.10;;;5.78;;
73264;SDS011;61493;51.008;14.088;2023-08-17T12:11:20;10.00;;;6.10;;
73264;SDS011;61493;51.008;14.088;2023-08-17T12:13:49;7.90;;;6.03;;
73264;SDS011;61493;51.008;14.088;2023-08-17T12:16:15;7.45;;;6.30;;
73264;SDS011;61493;51.008;14.088;2023-08-17T12:18:40;8.43;;;6.30;;
73264;SDS011;61493;51.008;14.088;2023-08-17T12:21:08;8.18;;;6.93;;
73264;SDS011;61493;51.008;14.088;2023-08-17T12:23:33;7.50;;;6.27;;
73264;SDS011;61493;51.008;14.088;2023-08-17T12:25:58;16.40;;;7.20;;
73264;SDS011;61493;51.008;14.088;2023-08-17T12:28:24;8.70;;;6.22;;
73264;SDS011;61493;51.008;14.088;2023-08-17T12:30:59;9.10;;;6.40;;
73264;SDS011;61493;51.008;14.088;2023-08-17T12:33:25;7.03;;;6.32;;
73264;SDS011;61493;51.008;14.088;2023-08-17T12:35:50;11.27;;;6.87;;
73264;SDS011;61493;51.008;14.088;2023-08-17T12:38:15;7.90;;;6.20;;
73264;SDS011;61493;51.008;14.088;2023-08-17T12:40:41;8.10;;;7.30;;
73264;SDS011;61493;51.008;14.088;2023-08-17T12:43:06;7.87;;;6.77;;
73264;SDS011;61493;51.008;14.088;2023-08-17T12:45:31;8.15;;;6.22;;
73264;SDS011;61493;51.008;14.088;2023-08-17T12:47:56;7.97;;;6.70;;
73264;SDS011;61493;51.008;14.088;2023-08-17T12:50:21;10.10;;;6.17;;
73264;SDS011;61493;51.008;14.088;2023-08-17T12:52:47;8.73;;;6.67;;
73264;SDS011;61493;51.008;14.088;2023-08-17T12:55:12;7.10;;;6.40;;
73264;SDS011;61493;51.008;14.088;2023-08-17T12:57:37;8.57;;;6.23;;
73264;SDS011;61493;51.008;14.088;2023-08-17T13:00:02;8.70;;;7.00;;
73264;SDS011;61493;51.008;14.088;2023-08-17T13:02:28;7.53;;;6.68;;
73264;SDS011;61493;51.008;14.088;2023-08-17T13:04:53;12.77;;;7.30;;
73264;SDS011;61493;51.008;14.088;2023-08-17T13:07:18;7.60;;;6.60;;
73264;SDS011;61493;51.008;14.088;2023-08-17T13:09:43;8.87;;;6.63;;
73264;SDS011;61493;51.008;14.088;2023-08-17T13:12:11;9.52;;;6.95;;
73264;SDS011;61493;51.008;14.088;2023-08-17T13:14:36;9.60;;;7.20;;
73264;SDS011;61493;51.008;14.088;2023-08-17T13:17:01;8.07;;;7.00;;
73264;SDS011;61493;51.008;14.088;2023-08-17T13:19:27;6.70;;;6.00;;
73264;SDS011;61493;51.008;14.088;2023-08-17T13:21:52;9.13;;;6.65;;
73264;SDS011;61493;51.008;14.088;2023-08-17T13:24:17;6.87;;;6.00;;
73264;SDS011;61493;51.008;14.088;2023-08-17T13:26:42;9.13;;;6.97;;
73264;SDS011;61493;51.008;14.088;2023-08-17T13:29:08;8.77;;;6.50;;
73264;SDS011;61493;51.008;14.088;2023-08-17T13:31:34;7.90;;;6.45;;
73264;SDS011;61493;51.008;14.088;2023-08-17T13:33:59;8.20;;;6.07;;
73264;SDS011;61493;51.008;14.088;2023-08-17T13:36:26;7.78;;;6.60;;
73264;SDS011;61493;51.008;14.088;2023-08-17T13:38:51;8.20;;;6.53;;
73264;SDS011;61493;51.008;14.088;2023-08-17T13:41:17;7.13;;;6.43;;
73264;SDS011;61493;51.008;14.088;2023-08-17T13:43:42;7.53;;;6.13;;
73264;SDS011;61493;51.008;14.088;2023-08-17T13:46:07;9.23;;;6.83;;
73264;SDS011;61493;51.008;14.088;2023-08-17T13:48:32;6.70;;;6.00;;
73264;SDS011;61493;51.008;14.088;2023-08-17T13:50:58;10.27;;;6.97;;
73264;SDS011;61493;51.008;14.088;2023-08-17T13:53:23;9.20;;;6.60;;
73264;SDS011;61493;51.008;14.088;2023-08-17T13:55:48;8.77;;;6.23;;
73264;SDS011;61493;51.008;14.088;2023-08-17T13:58:13;7.10;;;6.17;;
73264;SDS011;61493;51.008;14.088;2023-08-17T14:00:40;9.68;;;6.65;;
73264;SDS011;61493;51.008;14.088;2023-08-17T14:03:05;11.60;;;6.53;;
73264;SDS011;61493;51.008;14.088;2023-08-17T14:05:31;9.88;;;6.90;;
73264;SDS011;61493;51.008;14.088;2023-08-17T14:07:56;7.65;;;6.55;;
73264;SDS011;61493;51.008;14.088;2023-08-17T14:10:21;8.13;;;6.27;;
73264;SDS011;61493;51.008;14.088;2023-08-17T14:12:47;7.87;;;6.60;;
73264;SDS011;61493;51.008;14.088;2023-08-17T14:15:12;7.20;;;6.33;;
73264;SDS011;61493;51.008;14.088;2023-08-17T14:17:37;10.40;;;7.40;;
73264;SDS011;61493;51.008;14.088;2023-08-17T14:20:02;7.43;;;6.57;;
73264;SDS011;61493;51.008;14.088;2023-08-17T14:22:29;8.98;;;6.53;;
73264;SDS011;61493;51.008;14.088;2023-08-17T14:24:54;8.07;;;6.43;;
73264;SDS011;61493;51.008;14.088;2023-08-17T14:27:19;8.40;;;6.00;;
73264;SDS011;61493;51.008;14.088;2023-08-17T14:29:44;7.57;;;6.37;;
73264;SDS011;61493;51.008;14.088;2023-08-17T14:32:10;6.50;;;5.90;;
73264;SDS011;61493;51.008;14.088;2023-08-17T14:34:35;7.40;;;5.90;;
73264;SDS011;61493;51.008;14.088;2023-08-17T14:37:00;7.47;;;5.95;;
73264;SDS011;61493;51.008;14.088;2023-08-17T14:39:25;9.17;;;5.83;;